Time;durP1;ratioP1;P1;durP2;ratioP2;P2;SDS_P1;SDS_P2;PMS_P1;PMS_P2;Temp;Humidity;BMP_temperature;BMP_pressure;BME280_temperature;BME280_humidity;BME280_pressure;Samples;Min_cycle;Max_cycle;Signal;HPM_P1;HPM_P2
2022/07/22 00:00:37;;;;;;;5.90;2.60;;;;;;;28.32;42.19;100443.97;4980439;28;20022;-87
2022/07/22 00:06:40;;;;;;;9.40;2.60;;;;;;;28.09;42.42;100445.44;4938984;29;20125;-87
2022/07/22 00:09:06;;;;;;;6.55;3.17;;;;;;;28.13;41.97;100447.34;4923199;29;20501;-91
2022/07/22 00:11:31;;;;;;;6.78;3.35;;;;;;;28.05;41.90;100447.88;4923114;29;20035;-89
2022/07/22 00:13:57;;;;;;;4.60;2.78;;;;;;;28.09;42.12;100442.72;4940152;29;20046;-88
2022/07/22 00:16:22;;;;;;;6.32;3.00;;;;;;;28.10;41.74;100449.81;4923257;29;20066;-87
2022/07/22 00:18:50;;;;;;;6.70;3.75;;;;;;;28.10;41.81;100455.25;4939930;29;20035;-86
2022/07/22 00:21:18;;;;;;;6.30;2.58;;;;;;;28.14;43.48;100440.78;4939094;29;20609;-87
2022/07/22 00:23:43;;;;;;;7.72;3.10;;;;;;;28.15;43.37;100445.13;4922980;29;20090;-87
2022/07/22 00:26:09;;;;;;;6.38;3.47;;;;;;;28.15;43.46;100447.03;4940436;29;20126;-86
2022/07/22 00:28:37;;;;;;;8.02;3.17;;;;;;;28.22;43.52;100448.38;4948188;29;20039;-90
2022/07/22 00:31:02;;;;;;;11.88;3.40;;;;;;;28.28;43.96;100453.78;4956089;28;20128;-87
2022/07/22 00:33:28;;;;;;;11.30;3.80;;;;;;;28.22;44.00;100448.38;4930894;28;20050;-86
2022/07/22 00:35:54;;;;;;;12.80;5.18;;;;;;;28.06;45.40;100459.63;4942435;28;20474;-89
2022/07/22 00:38:19;;;;;;;13.38;5.18;;;;;;;27.85;46.42;100450.69;4944607;29;20036;-90
2022/07/22 00:40:45;;;;;;;12.85;3.72;;;;;;;27.81;45.53;100444.16;4944066;29;20035;-89
2022/07/22 00:43:13;;;;;;;7.53;3.78;;;;;;;27.70;46.24;100448.00;4926597;29;20481;-88
2022/07/22 00:45:40;;;;;;;9.77;3.33;;;;;;;27.79;46.03;100449.06;4932175;29;20032;-90
2022/07/22 00:48:06;;;;;;;13.75;4.00;;;;;;;27.86;45.80;100444.16;4927819;29;20034;-86
2022/07/22 00:50:31;;;;;;;12.93;3.60;;;;;;;27.63;47.05;100450.22;4926542;29;20396;-88
2022/07/22 00:52:57;;;;;;;8.10;4.00;;;;;;;27.51;46.90;100447.75;4941102;29;20107;-89
2022/07/22 00:55:23;;;;;;;6.20;3.72;;;;;;;27.32;47.03;100452.13;4939039;29;20054;-88
2022/07/22 00:57:48;;;;;;;14.93;5.90;;;;;;;27.16;49.01;100440.44;4923531;29;20051;-87
2022/07/22 01:00:19;;;;;;;17.35;4.85;;;;;;;27.25;48.42;100443.41;4908453;29;20190;-86
2022/07/22 01:02:44;;;;;;;10.43;4.28;;;;;;;26.93;48.09;100441.00;4942500;29;20466;-87
2022/07/22 01:05:10;;;;;;;13.18;4.32;;;;;;;26.91;47.57;100443.19;4942315;29;20040;-89
2022/07/22 01:07:37;;;;;;;11.23;4.35;;;;;;;26.73;47.37;100446.38;4925528;29;20023;-87
2022/07/22 01:10:04;;;;;;;7.50;3.50;;;;;;;26.54;47.27;100446.09;4940977;29;20040;-86
2022/07/22 01:12:30;;;;;;;5.93;3.00;;;;;;;26.67;46.90;100448.28;4922993;29;20039;-88
2022/07/22 01:14:55;;;;;;;4.57;2.63;;;;;;;26.85;45.63;100444.25;4923295;29;20046;-88
2022/07/22 01:17:21;;;;;;;6.45;3.00;;;;;;;26.86;44.78;100451.31;4940139;29;20525;-90
2022/07/22 01:19:47;;;;;;;3.47;2.70;;;;;;;26.59;45.20;100456.13;4926832;29;20123;-89
2022/07/22 01:22:13;;;;;;;12.35;2.92;;;;;;;26.27;45.87;100459.06;4930596;29;20107;-88
2022/07/22 01:24:38;;;;;;;6.97;3.00;;;;;;;26.29;46.34;100454.16;4930019;29;20032;-89
2022/07/22 01:27:04;;;;;;;9.68;3.50;;;;;;;26.22;46.87;100455.50;4946571;29;20028;-89
2022/07/22 01:29:29;;;;;;;12.02;3.92;;;;;;;26.18;47.60;100455.22;4915599;29;20040;-90
2022/07/22 01:31:56;;;;;;;12.10;3.65;;;;;;;26.20;47.25;100453.88;4942107;29;20032;-90
2022/07/22 01:34:22;;;;;;;11.20;3.13;;;;;;;26.18;48.36;100455.22;4922070;29;20050;-89
2022/07/22 01:36:48;;;;;;;8.40;3.95;;;;;;;26.20;48.36;100456.59;4906782;29;20160;-89
2022/07/22 01:39:14;;;;;;;5.88;3.20;;;;;;;26.33;48.24;100451.72;4928655;28;20478;-90
2022/07/22 01:41:40;;;;;;;8.60;4.00;;;;;;;26.37;48.76;100456.38;4941200;29;20102;-89
2022/07/22 01:44:09;;;;;;;12.57;3.70;;;;;;;26.13;49.18;100460.59;4924869;29;20047;-90
2022/07/22 01:46:35;;;;;;;12.48;4.28;;;;;;;25.98;50.09;100450.50;4939221;29;20040;-87
2022/07/22 01:49:01;;;;;;;6.50;3.38;;;;;;;25.98;49.85;100455.94;4924316;29;20039;-90
2022/07/22 01:51:32;;;;;;;9.52;4.15;;;;;;;26.15;49.03;100453.00;4921342;29;20038;-89
2022/07/22 01:53:57;;;;;;;7.18;3.83;;;;;;;26.22;48.55;100455.50;4921355;29;20035;-87
2022/07/22 01:56:24;;;;;;;5.00;3.78;;;;;;;26.17;48.98;100454.41;4921170;29;20035;-89
2022/07/22 01:58:50;;;;;;;9.05;3.72;;;;;;;26.12;49.38;100450.81;4921290;29;20036;-88
2022/07/22 02:01:21;;;;;;;11.85;4.03;;;;;;;26.05;49.24;100448.34;4905645;29;20080;-91
2022/07/22 02:03:46;;;;;;;10.02;3.40;;;;;;;25.86;48.96;100449.88;4920981;29;20126;-87
2022/07/22 02:06:12;;;;;;;8.73;3.95;;;;;;;25.92;48.19;100451.53;4920608;29;20036;-86
2022/07/22 02:08:38;;;;;;;8.93;3.38;;;;;;;25.84;46.86;100454.78;4936508;29;20043;-86
2022/07/22 02:11:12;;;;;;;4.30;2.55;;;;;;;25.84;46.38;100445.81;4920515;29;20385;-87
2022/07/22 02:13:54;;;;;;;5.30;2.47;;;;;;;25.84;44.83;100449.34;4920893;29;20039;-87
2022/07/22 02:16:20;;;;;;;6.55;2.40;;;;;;;25.71;45.13;100444.38;4920558;29;20036;-86
2022/07/22 02:18:46;;;;;;;6.45;2.40;;;;;;;25.54;45.22;100443.75;4924427;29;20019;-88
2022/07/22 02:21:12;;;;;;;6.88;2.28;;;;;;;25.56;45.66;100447.81;4938201;29;20028;-87
2022/07/22 02:23:37;;;;;;;7.65;2.72;;;;;;;25.67;45.42;100444.09;4937173;29;20078;-87
2022/07/22 02:26:04;;;;;;;5.85;2.60;;;;;;;25.82;45.00;100451.47;4920380;29;20492;-88
2022/07/22 02:28:31;;;;;;;7.88;2.47;;;;;;;25.58;45.67;100444.84;4920917;29;20050;-88
2022/07/22 02:30:57;;;;;;;5.78;2.83;;;;;;;25.51;45.90;100444.25;4905100;29;20553;-87
2022/07/22 02:33:22;;;;;;;4.72;2.75;;;;;;;25.52;45.93;100435.84;4937818;29;20035;-86
2022/07/22 02:35:48;;;;;;;8.68;2.53;;;;;;;25.43;45.85;100440.09;4952767;29;20044;-87
2022/07/22 02:38:14;;;;;;;7.38;2.90;;;;;;;25.47;45.93;100437.69;4921164;29;20048;-90
2022/07/22 02:40:42;;;;;;;6.35;2.55;;;;;;;25.54;46.07;100443.75;4937971;29;20106;-87
2022/07/22 02:54:21;;;;;;;6.20;2.80;;;;;;;25.08;46.26;100456.13;5029377;22;20070;-88
2022/07/22 02:56:48;;;;;;;3.85;2.60;;;;;;;25.07;46.31;100454.50;4974406;28;20039;-86
2022/07/22 02:59:14;;;;;;;6.95;3.00;;;;;;;24.98;46.74;100453.34;4980947;28;20051;-87
2022/07/22 03:01:40;;;;;;;3.55;2.33;;;;;;;24.91;46.71;100450.84;4981086;28;20045;-88
2022/07/22 03:04:05;;;;;;;9.68;2.67;;;;;;;24.93;46.75;100453.28;4965787;28;20035;-87
2022/07/22 03:06:34;;;;;;;6.60;2.80;;;;;;;25.10;46.37;100454.78;4960197;28;20118;-87
2022/07/22 03:09:05;;;;;;;8.15;2.90;;;;;;;25.17;46.17;100460.00;4959877;28;20035;-86
2022/07/22 03:11:31;;;;;;;4.30;2.60;;;;;;;25.09;46.57;100455.84;4958925;28;20046;-88
2022/07/22 03:13:57;;;;;;;9.02;2.35;;;;;;;24.96;46.52;100455.47;4942628;28;20035;-88
2022/07/22 03:16:23;;;;;;;7.93;2.60;;;;;;;25.03;45.77;100459.59;4959847;28;20050;-87
2022/07/22 03:18:48;;;;;;;6.13;2.53;;;;;;;24.97;45.62;100457.94;4944456;28;20498;-89
2022/07/22 03:21:15;;;;;;;3.83;2.53;;;;;;;24.88;45.72;100462.19;4959167;28;20451;-89
2022/07/22 03:23:41;;;;;;;6.90;2.50;;;;;;;24.95;45.25;100464.69;4960862;28;20547;-89
2022/07/22 03:26:08;;;;;;;5.95;2.10;;;;;;;25.07;44.69;100460.72;4945297;28;20042;-88
2022/07/22 03:28:34;;;;;;;8.63;2.45;;;;;;;24.98;44.79;100472.31;4961894;28;20129;-89
2022/07/22 03:30:59;;;;;;;4.95;2.63;;;;;;;24.81;44.71;100472.41;4986529;28;20062;-91
2022/07/22 03:33:25;;;;;;;3.75;2.20;;;;;;;24.81;44.13;100477.00;4978599;28;20039;-88
2022/07/22 03:35:51;;;;;;;5.63;2.20;;;;;;;24.68;43.74;100479.06;4981876;28;20015;-88
2022/07/22 03:38:17;;;;;;;3.42;2.10;;;;;;;24.59;44.39;100477.06;4966077;28;20111;-90
2022/07/22 03:40:43;;;;;;;5.80;2.38;;;;;;;24.54;44.64;100485.13;4962017;28;20039;-89
2022/07/22 03:43:08;;;;;;;3.60;2.22;;;;;;;24.49;44.61;100493.22;4944381;28;20122;-91
2022/07/22 03:45:34;;;;;;;7.25;1.95;;;;;;;24.42;44.95;100485.28;4962628;28;20039;-90
2022/07/22 03:47:59;;;;;;;6.50;2.55;;;;;;;24.55;44.70;100484.06;4961280;28;20125;-91
2022/07/22 03:50:28;;;;;;;3.15;2.35;;;;;;;24.53;44.92;100486.19;4961518;28;20107;-90
2022/07/22 03:52:54;;;;;;;7.40;2.08;;;;;;;24.54;44.68;100487.84;4960413;28;20129;-88
2022/07/22 03:55:26;;;;;;;5.57;2.38;;;;;;;24.73;44.22;100491.00;4961353;28;20114;-91
2022/07/22 03:57:54;;;;;;;5.97;2.25;;;;;;;24.77;44.60;100484.81;5075025;23;20145;-89
2022/07/22 04:00:26;;;;;;;3.92;2.30;;;;;;;24.62;44.56;100490.94;4958459;28;20164;-89
2022/07/22 04:02:53;;;;;;;4.45;2.92;;;;;;;24.72;44.53;100484.78;4979443;28;20066;-88
2022/07/22 04:05:28;;;;;;;5.07;3.00;;;;;;;24.74;44.84;100481.81;4961651;28;20035;-90
2022/07/22 04:07:54;;;;;;;6.40;2.95;;;;;;;24.61;45.26;100493.88;4961545;28;20046;-89
2022/07/22 04:10:20;;;;;;;4.28;2.70;;;;;;;24.80;44.70;100487.03;4961677;28;20026;-86
2022/07/22 04:12:46;;;;;;;5.68;2.72;;;;;;;24.60;45.08;100494.94;4961493;28;20575;-87
2022/07/22 04:15:23;;;;;;;3.70;2.13;;;;;;;24.50;45.43;100489.41;4946149;28;20035;-87
2022/07/22 04:17:49;;;;;;;4.28;2.80;;;;;;;24.61;44.96;100489.28;4960583;28;20090;-88
2022/07/22 04:20:17;;;;;;;5.22;2.60;;;;;;;24.74;45.21;100487.22;4947234;28;20032;-86
2022/07/22 04:23:22;;;;;;;7.38;3.08;;;;;;;24.77;45.29;100486.72;4961071;29;20097;-88
2022/07/22 04:25:55;;;;;;;6.18;2.60;;;;;;;24.68;45.67;100491.78;4940837;29;20444;-87
2022/07/22 04:37:33;;;;;;;12.13;2.90;;;;;;;24.77;47.17;100492.97;4752592;26;20031;-87
2022/07/22 04:59:22;;;;;;;7.50;3.13;;;;;;;24.95;47.72;100495.34;3049222;22;20042;-88
2022/07/22 05:15:38;;;;;;;11.82;2.90;;;;;;;25.20;48.70;100511.84;5013112;23;20043;-87
2022/07/22 05:18:14;;;;;;;13.73;3.28;;;;;;;25.24;48.43;100516.75;4994881;28;20039;-87
2022/07/22 05:24:18;;;;;;;15.52;3.20;;;;;;;25.33;48.14;100502.44;5213663;22;20057;-86
2022/07/22 05:27:18;;;;;;;9.48;3.53;;;;;;;25.60;48.16;100511.38;4972322;28;20053;-84
2022/07/22 05:29:58;;;;;;;26.83;4.18;;;;;;;25.82;47.54;100511.22;4989578;28;20111;-85
2022/07/22 05:32:39;;;;;;;18.00;3.55;;;;;;;25.94;47.45;100503.72;4981717;28;20042;-85
2022/07/22 05:35:33;;;;;;;10.38;3.30;;;;;;;26.09;47.40;100511.09;4971156;28;20077;-84
2022/07/22 05:38:21;;;;;;;13.50;3.40;;;;;;;26.26;46.53;100510.94;4993502;28;20059;-83
2022/07/22 05:41:09;;;;;;;9.98;3.28;;;;;;;26.37;45.95;100512.63;4996195;28;20073;-84
2022/07/22 05:49:22;;;;;;;11.27;3.72;;;;;;;27.03;43.99;100511.72;4620888;26;20047;-85
2022/07/22 05:52:52;;;;;;;14.18;3.28;;;;;;;27.18;43.43;100508.19;4989616;28;20039;-85
2022/07/22 05:55:53;;;;;;;8.32;3.33;;;;;;;27.49;43.17;100514.47;4975547;28;20047;-86
2022/07/22 05:58:42;;;;;;;12.07;3.13;;;;;;;27.81;42.29;100516.91;5008339;23;20066;-84
2022/07/22 06:04:08;;;;;;;10.77;3.40;;;;;;;28.34;40.79;100518.91;4975873;23;20078;-87
2022/07/22 06:07:02;;;;;;;13.52;3.13;;;;;;;28.78;39.73;100526.34;4961726;29;20158;-86
2022/07/22 06:10:06;;;;;;;4.90;3.10;;;;;;;29.10;38.99;100523.97;4942867;29;20079;-86
2022/07/22 06:13:04;;;;;;;9.27;2.90;;;;;;;29.19;39.27;100522.25;4984608;28;20121;-85
2022/07/22 06:16:18;;;;;;;9.73;3.38;;;;;;;29.50;38.18;100523.66;5230221;23;20058;-85
2022/07/22 06:22:10;;;;;;;9.05;3.42;;;;;;;30.10;37.80;100530.44;5411632;23;20046;-86
2022/07/22 06:24:45;;;;;;;8.38;3.53;;;;;;;30.10;38.39;100533.16;5003596;28;20034;-85
2022/07/22 06:27:38;;;;;;;10.37;3.83;;;;;;;30.07;38.14;100539.22;4978852;28;20059;-83
2022/07/22 06:30:45;;;;;;;7.63;3.45;;;;;;;30.51;37.62;100539.00;4978164;28;20302;-84
2022/07/22 06:33:33;;;;;;;9.63;3.92;;;;;;;30.53;37.62;100544.16;4978536;28;20173;-84
2022/07/22 06:36:28;;;;;;;14.35;3.88;;;;;;;30.59;37.46;100546.53;4961266;28;20047;-87
2022/07/22 06:39:23;;;;;;;13.30;3.95;;;;;;;30.51;38.15;100554.59;4961609;29;20063;-85
2022/07/22 06:42:32;;;;;;;11.85;3.72;;;;;;;31.36;36.45;100547.06;4919636;29;20111;-80
2022/07/22 06:45:27;;;;;;;13.35;3.63;;;;;;;31.38;36.57;100553.06;4956644;29;20099;-83
2022/07/22 06:48:50;;;;;;;13.95;4.30;;;;;;;31.76;35.69;100551.06;4977512;29;20073;-83
2022/07/22 06:51:39;;;;;;;16.40;4.20;;;;;;;31.63;36.15;100555.41;4977483;29;20047;-83
2022/07/22 06:54:24;;;;;;;16.73;4.55;;;;;;;31.81;36.13;100559.22;4976268;29;20035;-84
2022/07/22 07:00:09;;;;;;;6.32;3.67;;;;;;;32.19;35.37;100566.16;4885826;26;20023;-82
2022/07/22 07:03:40;;;;;;;8.25;3.80;;;;;;;32.39;35.75;100572.34;4995548;28;20046;-81
2022/07/22 07:06:17;;;;;;;15.20;3.70;;;;;;;32.39;34.45;100572.34;4976693;28;20054;-82
2022/07/22 07:09:22;;;;;;;8.15;3.95;;;;;;;32.04;35.61;100566.47;4938594;29;20048;-84
2022/07/22 07:14:55;;;;;;;12.25;4.05;;;;;;;32.67;34.38;100568.50;5009424;22;20511;-84
2022/07/22 07:18:01;;;;;;;5.45;3.22;;;;;;;33.49;34.39;100571.81;4978658;28;20046;-90
2022/07/22 07:25:55;;;;;;;;;;;;;;;33.18;33.43;100582.72;5043025;22;20114;-89
2022/07/22 07:29:26;;;;;;;8.27;3.78;;;;;;;33.85;32.67;100579.97;4999978;28;19933;-87
2022/07/22 07:32:36;;;;;;;9.27;4.28;;;;;;;33.80;32.57;100579.31;5005926;28;20046;-88
2022/07/22 07:36:37;;;;;;;10.13;4.00;;;;;;;33.57;33.42;100575.75;4997307;28;20027;-89
2022/07/22 07:43:38;;;;;;;14.48;4.65;;;;;;;33.62;33.70;100578.41;4917555;29;20060;-89
2022/07/22 07:46:37;;;;;;;9.90;4.53;;;;;;;33.63;33.82;100585.53;4919920;29;20043;-83
2022/07/22 07:49:03;;;;;;;11.68;4.57;;;;;;;33.51;34.28;100582.50;4942060;28;20047;-82
2022/07/22 07:51:45;;;;;;;16.48;5.00;;;;;;;33.62;33.90;100589.38;4981666;28;20070;-85
2022/07/22 07:55:12;;;;;;;8.90;4.38;;;;;;;34.07;33.37;100588.19;4996751;28;20039;-83
2022/07/22 08:00:35;;;;;;;;;;;;;;;34.37;33.16;100583.78;1031515;26;20338;-84
2022/07/22 08:03:18;;;;;;;16.15;4.70;;;;;;;34.80;32.18;100581.19;4981170;28;19922;-84
2022/07/22 08:05:57;;;;;;;14.93;4.70;;;;;;;34.61;32.49;100595.22;4988578;28;20059;-81
2022/07/22 08:08:54;;;;;;;11.13;4.40;;;;;;;34.77;32.21;100588.13;4995589;28;20061;-82
2022/07/22 08:11:48;;;;;;;11.45;4.97;;;;;;;34.43;32.95;100588.03;4994421;28;20097;-82
2022/07/22 08:15:19;;;;;;;11.00;4.68;;;;;;;34.89;32.42;100584.75;4981836;28;20051;-82
2022/07/22 08:18:30;;;;;;;7.80;4.30;;;;;;;35.27;32.62;100584.94;4995872;28;20039;-83
2022/07/22 08:21:25;;;;;;;17.38;4.75;;;;;;;35.86;31.57;100586.03;4994637;28;20030;-83
2022/07/22 08:28:09;;;;;;;12.85;4.47;;;;;;;36.12;29.79;100591.47;4967225;28;20082;-84
2022/07/22 08:31:46;;;;;;;22.83;4.70;;;;;;;36.03;29.58;100585.94;5090316;23;20043;-83
2022/07/22 08:34:27;;;;;;;12.55;4.70;;;;;;;36.23;30.00;100589.97;4991956;28;20051;-81
2022/07/22 08:53:56;;;;;;;15.70;3.95;;;;;;;36.61;29.90;100589.97;839261;22;20341;-85
2022/07/22 08:57:06;;;;;;;14.85;4.72;;;;;;;36.47;29.31;100579.13;4998875;28;20078;-81
2022/07/22 09:00:19;;;;;;;19.17;4.60;;;;;;;36.41;29.20;100585.16;4990371;28;20047;-85
2022/07/22 09:16:09;;;;;;;8.63;3.58;;;;;;;37.90;26.44;100586.91;4939388;29;20047;-80
2022/07/22 09:19:46;;;;;;;16.83;4.10;;;;;;;37.42;26.78;100595.06;4866610;29;20055;-79
2022/07/22 09:28:08;;;;;;;8.25;3.90;;;;;;;37.74;27.69;100586.78;5233866;23;20055;-88
2022/07/22 09:30:54;;;;;;;10.60;4.05;;;;;;;37.26;29.10;100578.28;4949532;28;20050;-89
2022/07/22 09:33:22;;;;;;;10.45;4.07;;;;;;;37.56;28.68;100578.97;4957808;28;20054;-90
2022/07/22 09:36:02;;;;;;;10.35;3.50;;;;;;;37.39;28.50;100579.16;4962204;29;20504;-88
2022/07/22 09:38:29;;;;;;;10.70;3.80;;;;;;;37.62;27.88;100570.13;4988748;28;20072;-89
2022/07/22 09:40:56;;;;;;;10.20;3.40;;;;;;;38.22;27.47;100566.66;4980858;28;20023;-91
2022/07/22 09:43:21;;;;;;;9.75;3.72;;;;;;;37.63;27.87;100568.16;5010771;28;20018;-88
2022/07/22 09:46:01;;;;;;;14.52;5.18;;;;;;;36.73;29.55;100566.00;4974949;28;20035;-89
2022/07/22 09:48:55;;;;;;;9.15;3.13;;;;;;;37.10;28.84;100558.75;4969393;28;20038;-87
2022/07/22 09:51:48;;;;;;;15.60;3.33;;;;;;;36.90;29.30;100556.75;4970048;28;20026;-87
2022/07/22 09:54:20;;;;;;;9.57;3.60;;;;;;;36.82;28.33;100552.13;4984725;28;20049;-91
2022/07/22 09:56:46;;;;;;;8.88;3.17;;;;;;;37.07;28.49;100553.91;4998816;28;20068;-86
2022/07/22 09:59:19;;;;;;;14.57;3.10;;;;;;;37.27;28.81;100557.78;4968790;28;20027;-87
2022/07/22 10:01:59;;;;;;;8.85;3.03;;;;;;;37.44;28.53;100554.03;4949818;28;20030;-87
2022/07/22 10:04:31;;;;;;;9.35;2.78;;;;;;;37.42;28.36;100559.09;4993328;28;20034;-83
2022/07/22 10:07:01;;;;;;;11.95;2.67;;;;;;;37.55;28.04;100555.25;4973360;28;20034;-89
2022/07/22 10:09:34;;;;;;;15.75;3.25;;;;;;;37.84;27.37;100551.50;4977238;28;20128;-87
2022/07/22 10:12:01;;;;;;;8.55;3.38;;;;;;;37.54;27.51;100550.88;4988636;28;20125;-88
2022/07/22 10:14:28;;;;;;;13.07;2.53;;;;;;;37.21;27.86;100548.91;4992652;28;20039;-85
2022/07/22 10:17:00;;;;;;;7.47;3.10;;;;;;;37.09;27.75;100542.50;4988743;28;20039;-85
2022/07/22 10:19:27;;;;;;;4.55;2.90;;;;;;;36.95;27.77;100548.28;4955197;29;20042;-83
2022/07/22 10:21:53;;;;;;;8.43;2.63;;;;;;;37.51;27.08;100552.38;4992105;28;20086;-85
2022/07/22 10:24:23;;;;;;;9.93;2.90;;;;;;;37.76;26.31;100544.91;4994388;28;20035;-84
2022/07/22 10:26:58;;;;;;;7.70;3.47;;;;;;;37.75;26.68;100535.81;4985779;28;20042;-91
2022/07/22 10:29:44;;;;;;;16.08;3.20;;;;;;;37.51;26.90;100540.50;4960286;28;20039;-89
2022/07/22 10:32:15;;;;;;;7.95;3.40;;;;;;;37.66;26.72;100531.53;4953308;29;20039;-86
2022/07/22 10:35:02;;;;;;;11.55;3.03;;;;;;;37.62;26.66;100530.63;4953023;28;20039;-88
2022/07/22 10:37:34;;;;;;;8.75;2.55;;;;;;;37.51;27.05;100521.13;4959458;29;20043;-90
2022/07/22 10:40:11;;;;;;;;;;;;;;;37.54;26.85;100526.78;4960231;28;20042;-89
2022/07/22 10:43:08;;;;;;;9.48;2.95;;;;;;;36.82;28.09;100518.97;4965571;28;19922;-92
2022/07/22 10:45:35;;;;;;;7.68;2.67;;;;;;;37.38;28.04;100516.69;4951170;29;20046;-89
2022/07/22 10:48:09;;;;;;;9.48;3.03;;;;;;;37.73;26.68;100509.63;4968513;29;20062;-90
2022/07/22 10:50:38;;;;;;;8.57;2.67;;;;;;;37.86;26.48;100508.50;4964987;28;20086;-90
2022/07/22 10:53:19;;;;;;;9.82;2.92;;;;;;;38.28;26.43;100503.56;4965886;28;20031;-88
2022/07/22 10:56:06;;;;;;;8.25;2.70;;;;;;;38.49;26.06;100508.97;4963707;29;20055;-88
2022/07/22 10:58:31;;;;;;;9.65;3.00;;;;;;;38.61;25.49;100501.47;4960467;28;20046;-90
2022/07/22 11:00:59;;;;;;;9.60;2.65;;;;;;;38.62;25.83;100505.84;4960277;28;20393;-89
2022/07/22 11:03:25;;;;;;;6.70;3.00;;;;;;;38.86;25.24;100506.94;4959140;28;20030;-90
2022/07/22 11:05:51;;;;;;;7.70;2.33;;;;;;;38.58;25.92;100506.91;4957931;29;20035;-87
2022/07/22 11:08:20;;;;;;;8.10;2.60;;;;;;;37.93;26.75;100503.22;4959737;28;20050;-87
2022/07/22 11:10:49;;;;;;;10.40;2.83;;;;;;;37.98;26.23;100503.03;4964393;28;20031;-88
2022/07/22 11:13:35;;;;;;;5.72;2.60;;;;;;;37.92;25.35;100509.91;4961244;28;20039;-89
2022/07/22 11:16:19;;;;;;;6.80;2.40;;;;;;;38.36;25.07;100499.03;4970477;28;20035;-83
2022/07/22 11:18:58;;;;;;;6.55;2.47;;;;;;;38.56;25.16;100503.66;4962058;29;20085;-86
2022/07/22 11:21:29;;;;;;;20.73;3.28;;;;;;;38.49;26.41;100492.34;5018936;23;20046;-89
2022/07/22 11:26:55;;;;;;;6.72;2.67;;;;;;;38.04;26.50;100489.75;5033994;23;20067;-91
2022/07/22 11:29:37;;;;;;;8.40;4.10;;;;;;;38.52;26.70;100488.88;4979344;28;20530;-85
2022/07/22 11:32:24;;;;;;;7.23;3.10;;;;;;;38.70;25.89;100484.69;4985118;28;20488;-82
2022/07/22 11:34:50;;;;;;;6.65;3.00;;;;;;;38.74;25.90;100477.28;4964030;28;20042;-81
2022/07/22 11:37:23;;;;;;;11.70;2.70;;;;;;;38.85;25.72;100470.09;4989087;28;20038;-86
2022/07/22 11:39:49;;;;;;;8.90;2.70;;;;;;;38.62;25.77;100471.78;4988511;28;20042;-82
2022/07/22 11:42:15;;;;;;;8.23;3.03;;;;;;;38.19;26.92;100462.16;4963388;28;20496;-86
2022/07/22 11:44:40;;;;;;;9.15;2.60;;;;;;;37.89;28.05;100455.22;4974786;28;20042;-85
2022/07/22 11:47:07;;;;;;;4.80;2.60;;;;;;;37.66;27.61;100454.06;4980477;28;20045;-82
2022/07/22 11:49:36;;;;;;;4.13;2.40;;;;;;;37.48;27.81;100455.44;4984346;28;20118;-86
2022/07/22 11:52:08;;;;;;;5.07;2.88;;;;;;;37.18;28.58;100455.59;4988416;28;20491;-86
2022/07/22 11:54:34;;;;;;;9.93;2.75;;;;;;;36.83;29.04;100445.97;4979234;28;20393;-85
2022/07/22 11:57:01;;;;;;;6.35;2.55;;;;;;;36.81;29.14;100451.03;4973049;28;20043;-84
2022/07/22 11:59:27;;;;;;;11.32;2.72;;;;;;;36.52;29.56;100440.06;4987390;28;20034;-84
2022/07/22 12:01:55;;;;;;;11.65;2.42;;;;;;;36.19;30.11;100434.47;4985527;28;20038;-83
2022/07/22 12:04:24;;;;;;;6.20;2.53;;;;;;;36.48;29.84;100430.84;4977885;28;20034;-87
2022/07/22 12:06:50;;;;;;;5.47;2.80;;;;;;;36.37;30.13;100435.94;4993854;28;20499;-87
2022/07/22 12:09:28;;;;;;;9.75;2.70;;;;;;;36.23;31.10;100421.59;4986472;28;20022;-83
2022/07/22 12:11:57;;;;;;;8.32;3.13;;;;;;;36.34;30.92;100414.53;4985557;28;20118;-86
2022/07/22 12:14:31;;;;;;;6.43;2.90;;;;;;;36.46;30.66;100411.03;4976591;28;20018;-86
2022/07/22 12:17:11;;;;;;;8.23;2.88;;;;;;;36.56;30.23;100416.97;4979427;28;20041;-84
2022/07/22 12:19:38;;;;;;;14.10;3.10;;;;;;;36.21;30.78;100410.91;4990814;28;20101;-82
2022/07/22 12:22:13;;;;;;;8.45;2.97;;;;;;;35.86;31.07;100403.97;4965080;28;20486;-85
2022/07/22 12:24:42;;;;;;;10.40;2.90;;;;;;;35.99;30.85;100413.94;4990629;28;20049;-85
2022/07/22 12:27:09;;;;;;;9.20;2.83;;;;;;;35.86;30.26;100403.97;4966652;28;20047;-82
2022/07/22 12:29:35;;;;;;;6.20;2.70;;;;;;;35.98;30.32;100397.72;4980503;28;20035;-83
2022/07/22 12:32:09;;;;;;;8.10;2.92;;;;;;;36.28;30.13;100402.09;4982051;28;20082;-89
2022/07/22 12:34:36;;;;;;;7.35;2.80;;;;;;;36.07;30.14;100404.81;4980870;28;20774;-87
2022/07/22 12:37:21;;;;;;;5.93;2.80;;;;;;;35.92;30.17;100397.09;4980810;28;20066;-84
2022/07/22 12:40:11;;;;;;;11.95;3.20;;;;;;;36.02;29.90;100405.00;4995857;28;20026;-86
2022/07/22 12:42:40;;;;;;;9.13;3.00;;;;;;;36.15;29.53;100401.22;4990402;28;20098;-85
2022/07/22 12:45:15;;;;;;;10.73;3.13;;;;;;;36.17;29.78;100393.38;5001035;28;20023;-87
2022/07/22 12:47:45;;;;;;;8.07;3.28;;;;;;;36.19;29.60;100396.63;4997192;28;20133;-85
2022/07/22 12:50:27;;;;;;;11.00;3.40;;;;;;;36.28;29.62;100393.81;4978010;28;20034;-84
2022/07/22 12:53:07;;;;;;;8.88;3.08;;;;;;;36.22;30.11;100387.69;4977031;28;20045;-83
2022/07/22 12:55:38;;;;;;;8.30;3.10;;;;;;;35.88;30.41;100385.13;4978926;28;20143;-86
2022/07/22 12:58:08;;;;;;;7.43;3.08;;;;;;;36.05;29.93;100389.72;4977786;28;20511;-85
2022/07/22 13:00:40;;;;;;;12.43;3.22;;;;;;;36.29;29.13;100390.69;4978381;28;20031;-90
2022/07/22 13:03:05;;;;;;;9.63;3.38;;;;;;;36.27;28.95;100393.00;4961889;28;20049;-85
2022/07/22 13:05:32;;;;;;;18.02;3.10;;;;;;;36.04;29.67;100383.38;4983074;28;20035;-88
2022/07/22 13:07:57;;;;;;;7.68;3.33;;;;;;;36.09;29.48;100390.69;4995095;28;20046;-89
2022/07/22 13:10:27;;;;;;;6.28;3.13;;;;;;;36.14;28.90;100383.03;4979225;28;20014;-90
2022/07/22 13:12:53;;;;;;;8.85;3.10;;;;;;;36.07;29.02;100377.22;4995956;28;20123;-90
2022/07/22 13:15:19;;;;;;;9.35;3.60;;;;;;;36.04;29.42;100372.34;4979932;28;20054;-88
2022/07/22 13:17:49;;;;;;;11.07;3.08;;;;;;;36.11;29.34;100367.13;4985532;28;20094;-86
2022/07/22 13:20:16;;;;;;;19.95;3.47;;;;;;;36.14;29.82;100371.97;4978613;28;20433;-87
2022/07/22 13:22:43;;;;;;;7.90;3.58;;;;;;;36.18;29.35;100361.91;4977932;28;20031;-87
2022/07/22 13:25:09;;;;;;;7.45;3.25;;;;;;;36.24;28.56;100360.53;4977282;28;20101;-87
2022/07/22 13:27:35;;;;;;;6.60;3.45;;;;;;;36.15;29.29;100359.81;4969275;28;20480;-90
2022/07/22 13:30:00;;;;;;;9.43;3.42;;;;;;;36.13;29.24;100353.81;4953808;28;20110;-89
2022/07/22 13:32:26;;;;;;;11.85;3.65;;;;;;;36.16;29.34;100361.41;4977024;28;20506;-88
2022/07/22 13:34:52;;;;;;;6.95;3.35;;;;;;;36.17;29.35;100360.28;4977521;28;20114;-89
2022/07/22 13:37:17;;;;;;;5.47;3.30;;;;;;;36.03;29.02;100364.41;4964210;28;20050;-88
2022/07/22 13:39:45;;;;;;;12.32;3.45;;;;;;;35.75;29.79;100355.84;4977659;28;20031;-88
2022/07/22 13:42:18;;;;;;;8.02;3.40;;;;;;;35.63;29.83;100358.50;4977870;28;20038;-91
2022/07/22 13:44:47;;;;;;;10.68;3.15;;;;;;;35.77;29.07;100356.31;4977826;28;20399;-87
2022/07/22 13:47:13;;;;;;;13.93;3.65;;;;;;;35.71;28.98;100361.22;4976909;28;20070;-89
2022/07/22 13:49:38;;;;;;;7.72;3.85;;;;;;;35.75;29.54;100369.63;4968435;28;20038;-88
2022/07/22 13:52:05;;;;;;;7.07;3.50;;;;;;;35.82;30.25;100364.41;4977440;28;20089;-89
2022/07/22 13:54:31;;;;;;;10.13;3.75;;;;;;;35.68;30.70;100350.84;4977844;28;20058;-89
2022/07/22 13:56:59;;;;;;;5.63;3.17;;;;;;;35.64;31.04;100349.06;4977685;28;20456;-90
2022/07/22 13:59:24;;;;;;;5.10;3.55;;;;;;;35.70;30.80;100342.22;4959838;28;20424;-89
2022/07/22 14:01:50;;;;;;;10.85;3.42;;;;;;;35.77;31.06;100345.25;4980960;28;20074;-88
2022/07/22 14:04:16;;;;;;;9.45;3.70;;;;;;;35.89;30.71;100350.88;4962803;28;20031;-86
2022/07/22 14:06:41;;;;;;;6.97;3.75;;;;;;;35.98;30.48;100351.63;4980328;28;20034;-87
2022/07/22 14:09:10;;;;;;;7.57;4.22;;;;;;;35.86;30.46;100348.78;4979431;28;20465;-86
2022/07/22 14:11:35;;;;;;;9.77;7.55;;;;;;;35.86;30.71;100353.50;4979968;28;20097;-87
2022/07/22 14:14:01;;;;;;;9.77;7.50;;;;;;;35.73;30.86;100352.63;4978848;28;20074;-86